sensor_id;sensor_type;location;lat;lon;timestamp;P1;durP1;ratioP1;P2;durP2;ratioP2
29824;SDS011;16713;52.916;12.834;2022-07-23T00:00:18;15.63;;;4.88;;
29824;SDS011;16713;52.916;12.834;2022-07-23T00:02:45;6.68;;;4.70;;
29824;SDS011;16713;52.916;12.834;2022-07-23T00:05:12;8.20;;;4.95;;
29824;SDS011;16713;52.916;12.834;2022-07-23T00:07:39;9.43;;;5.00;;
29824;SDS011;16713;52.916;12.834;2022-07-23T00:10:06;8.10;;;4.75;;
29824;SDS011;16713;52.916;12.834;2022-07-23T00:12:33;10.88;;;5.32;;
29824;SDS011;16713;52.916;12.834;2022-07-23T00:15:01;10.77;;;5.25;;
29824;SDS011;16713;52.916;12.834;2022-07-23T00:17:28;8.82;;;5.13;;
29824;SDS011;16713;52.916;12.834;2022-07-23T00:19:55;12.40;;;5.22;;
29824;SDS011;16713;52.916;12.834;2022-07-23T00:22:21;6.47;;;5.55;;
29824;SDS011;16713;52.916;12.834;2022-07-23T00:24:48;11.05;;;4.78;;
29824;SDS011;16713;52.916;12.834;2022-07-23T00:27:34;8.27;;;4.25;;
29824;SDS011;16713;52.916;12.834;2022-07-23T00:30:01;10.77;;;5.30;;
29824;SDS011;16713;52.916;12.834;2022-07-23T00:32:28;9.13;;;4.47;;
29824;SDS011;16713;52.916;12.834;2022-07-23T00:35:14;7.95;;;4.40;;
29824;SDS011;16713;52.916;12.834;2022-07-23T00:37:42;10.23;;;4.82;;
29824;SDS011;16713;52.916;12.834;2022-07-23T00:40:09;8.98;;;4.68;;
29824;SDS011;16713;52.916;12.834;2022-07-23T00:42:37;8.05;;;4.35;;
29824;SDS011;16713;52.916;12.834;2022-07-23T00:45:04;8.38;;;4.57;;
29824;SDS011;16713;52.916;12.834;2022-07-23T00:47:32;6.72;;;4.63;;
29824;SDS011;16713;52.916;12.834;2022-07-23T00:49:59;11.10;;;5.88;;
29824;SDS011;16713;52.916;12.834;2022-07-23T00:52:25;6.15;;;4.43;;
29824;SDS011;16713;52.916;12.834;2022-07-23T00:54:52;15.38;;;4.72;;
29824;SDS011;16713;52.916;12.834;2022-07-23T00:57:19;10.90;;;5.15;;
29824;SDS011;16713;52.916;12.834;2022-07-23T00:59:53;9.45;;;4.47;;
29824;SDS011;16713;52.916;12.834;2022-07-23T01:02:20;12.32;;;5.25;;
29824;SDS011;16713;52.916;12.834;2022-07-23T01:04:46;12.60;;;4.57;;
29824;SDS011;16713;52.916;12.834;2022-07-23T01:07:13;10.05;;;4.57;;
29824;SDS011;16713;52.916;12.834;2022-07-23T01:09:40;8.10;;;4.15;;
29824;SDS011;16713;52.916;12.834;2022-07-23T01:12:07;10.57;;;4.78;;
29824;SDS011;16713;52.916;12.834;2022-07-23T01:14:33;7.25;;;4.97;;
29824;SDS011;16713;52.916;12.834;2022-07-23T01:17:00;8.07;;;4.10;;
29824;SDS011;16713;52.916;12.834;2022-07-23T01:19:27;8.43;;;4.30;;
29824;SDS011;16713;52.916;12.834;2022-07-23T01:21:54;10.73;;;4.72;;
29824;SDS011;16713;52.916;12.834;2022-07-23T01:24:23;10.40;;;5.35;;
29824;SDS011;16713;52.916;12.834;2022-07-23T01:26:50;9.50;;;4.45;;
29824;SDS011;16713;52.916;12.834;2022-07-23T01:29:17;6.80;;;4.40;;
29824;SDS011;16713;52.916;12.834;2022-07-23T01:31:43;8.52;;;4.57;;
29824;SDS011;16713;52.916;12.834;2022-07-23T01:34:10;6.80;;;4.18;;
29824;SDS011;16713;52.916;12.834;2022-07-23T01:36:37;7.13;;;4.40;;
29824;SDS011;16713;52.916;12.834;2022-07-23T01:39:04;9.55;;;3.92;;
29824;SDS011;16713;52.916;12.834;2022-07-23T01:41:32;8.07;;;4.95;;
29824;SDS011;16713;52.916;12.834;2022-07-23T01:44:00;6.78;;;5.10;;
29824;SDS011;16713;52.916;12.834;2022-07-23T01:46:27;6.43;;;4.40;;
29824;SDS011;16713;52.916;12.834;2022-07-23T01:48:53;10.55;;;6.63;;
29824;SDS011;16713;52.916;12.834;2022-07-23T01:51:20;10.25;;;4.47;;
29824;SDS011;16713;52.916;12.834;2022-07-23T01:53:47;12.98;;;4.78;;
29824;SDS011;16713;52.916;12.834;2022-07-23T01:56:13;6.20;;;4.30;;
29824;SDS011;16713;52.916;12.834;2022-07-23T01:58:41;11.27;;;5.10;;
29824;SDS011;16713;52.916;12.834;2022-07-23T02:01:07;8.23;;;4.75;;
29824;SDS011;16713;52.916;12.834;2022-07-23T02:03:34;13.05;;;6.10;;
29824;SDS011;16713;52.916;12.834;2022-07-23T02:06:01;8.93;;;4.63;;
29824;SDS011;16713;52.916;12.834;2022-07-23T02:08:27;11.20;;;5.15;;
29824;SDS011;16713;52.916;12.834;2022-07-23T02:10:53;9.38;;;4.85;;
29824;SDS011;16713;52.916;12.834;2022-07-23T02:13:21;8.30;;;4.28;;
29824;SDS011;16713;52.916;12.834;2022-07-23T02:15:48;9.52;;;4.95;;
29824;SDS011;16713;52.916;12.834;2022-07-23T02:18:14;7.60;;;4.78;;
29824;SDS011;16713;52.916;12.834;2022-07-23T02:20:41;8.00;;;5.22;;
29824;SDS011;16713;52.916;12.834;2022-07-23T02:23:08;10.00;;;4.95;;
29824;SDS011;16713;52.916;12.834;2022-07-23T02:25:35;10.15;;;5.65;;
29824;SDS011;16713;52.916;12.834;2022-07-23T02:28:01;7.43;;;5.00;;
29824;SDS011;16713;52.916;12.834;2022-07-23T02:30:28;11.15;;;5.25;;
29824;SDS011;16713;52.916;12.834;2022-07-23T02:32:55;9.80;;;5.20;;
29824;SDS011;16713;52.916;12.834;2022-07-23T02:35:21;12.90;;;4.97;;
29824;SDS011;16713;52.916;12.834;2022-07-23T02:37:48;6.32;;;4.95;;
29824;SDS011;16713;52.916;12.834;2022-07-23T02:40:16;8.38;;;4.85;;
29824;SDS011;16713;52.916;12.834;2022-07-23T02:42:43;13.73;;;5.43;;
29824;SDS011;16713;52.916;12.834;2022-07-23T02:45:10;8.55;;;5.85;;
29824;SDS011;16713;52.916;12.834;2022-07-23T02:47:37;9.20;;;5.05;;
29824;SDS011;16713;52.916;12.834;2022-07-23T02:50:04;13.38;;;5.35;;
29824;SDS011;16713;52.916;12.834;2022-07-23T02:52:31;7.85;;;4.93;;
29824;SDS011;16713;52.916;12.834;2022-07-23T02:54:58;10.02;;;5.70;;
29824;SDS011;16713;52.916;12.834;2022-07-23T02:57:25;11.27;;;5.35;;
29824;SDS011;16713;52.916;12.834;2022-07-23T02:59:51;10.68;;;5.45;;
29824;SDS011;16713;52.916;12.834;2022-07-23T03:02:18;12.07;;;6.00;;
29824;SDS011;16713;52.916;12.834;2022-07-23T03:04:44;7.90;;;5.45;;
29824;SDS011;16713;52.916;12.834;2022-07-23T03:07:11;8.13;;;5.63;;
29824;SDS011;16713;52.916;12.834;2022-07-23T03:09:37;7.93;;;4.57;;
29824;SDS011;16713;52.916;12.834;2022-07-23T03:12:04;6.88;;;4.65;;
29824;SDS011;16713;52.916;12.834;2022-07-23T03:14:38;9.20;;;6.32;;
29824;SDS011;16713;52.916;12.834;2022-07-23T03:17:05;9.98;;;5.70;;
29824;SDS011;16713;52.916;12.834;2022-07-23T03:19:31;12.35;;;6.60;;
29824;SDS011;16713;52.916;12.834;2022-07-23T03:21:58;8.55;;;5.80;;
29824;SDS011;16713;52.916;12.834;2022-07-23T03:24:24;7.65;;;5.88;;
29824;SDS011;16713;52.916;12.834;2022-07-23T03:27:11;10.20;;;5.20;;
29824;SDS011;16713;52.916;12.834;2022-07-23T03:29:38;10.35;;;5.50;;
29824;SDS011;16713;52.916;12.834;2022-07-23T03:32:04;9.60;;;5.97;;
29824;SDS011;16713;52.916;12.834;2022-07-23T03:34:31;16.98;;;7.20;;
29824;SDS011;16713;52.916;12.834;2022-07-23T03:36:57;11.00;;;5.85;;
29824;SDS011;16713;52.916;12.834;2022-07-23T03:39:27;12.95;;;6.88;;
29824;SDS011;16713;52.916;12.834;2022-07-23T03:41:54;12.57;;;6.25;;
29824;SDS011;16713;52.916;12.834;2022-07-23T03:44:21;9.40;;;6.07;;
29824;SDS011;16713;52.916;12.834;2022-07-23T03:46:47;12.90;;;6.30;;
29824;SDS011;16713;52.916;12.834;2022-07-23T03:49:14;14.63;;;6.57;;
29824;SDS011;16713;52.916;12.834;2022-07-23T03:51:41;8.75;;;6.55;;
29824;SDS011;16713;52.916;12.834;2022-07-23T03:54:07;9.90;;;6.35;;
29824;SDS011;16713;52.916;12.834;2022-07-23T03:56:35;10.65;;;5.72;;
29824;SDS011;16713;52.916;12.834;2022-07-23T03:59:02;8.02;;;5.15;;
29824;SDS011;16713;52.916;12.834;2022-07-23T04:01:29;12.98;;;6.70;;
29824;SDS011;16713;52.916;12.834;2022-07-23T04:03:56;10.15;;;6.13;;
29824;SDS011;16713;52.916;12.834;2022-07-23T04:06:22;7.15;;;5.97;;
29824;SDS011;16713;52.916;12.834;2022-07-23T04:08:49;10.93;;;5.63;;
29824;SDS011;16713;52.916;12.834;2022-07-23T04:11:15;10.15;;;5.93;;
29824;SDS011;16713;52.916;12.834;2022-07-23T04:13:42;11.38;;;5.90;;
29824;SDS011;16713;52.916;12.834;2022-07-23T04:16:08;8.90;;;6.07;;
29824;SDS011;16713;52.916;12.834;2022-07-23T04:18:35;10.73;;;6.43;;
29824;SDS011;16713;52.916;12.834;2022-07-23T04:21:02;6.72;;;5.53;;
29824;SDS011;16713;52.916;12.834;2022-07-23T04:23:28;11.82;;;5.80;;
29824;SDS011;16713;52.916;12.834;2022-07-23T04:25:55;10.13;;;5.97;;
29824;SDS011;16713;52.916;12.834;2022-07-23T04:28:22;8.00;;;5.60;;
29824;SDS011;16713;52.916;12.834;2022-07-23T04:30:50;11.68;;;6.00;;
29824;SDS011;16713;52.916;12.834;2022-07-23T04:33:17;10.70;;;6.25;;
29824;SDS011;16713;52.916;12.834;2022-07-23T04:35:43;10.32;;;5.78;;
29824;SDS011;16713;52.916;12.834;2022-07-23T04:38:10;9.18;;;6.10;;
29824;SDS011;16713;52.916;12.834;2022-07-23T04:40:36;17.55;;;7.28;;
29824;SDS011;16713;52.916;12.834;2022-07-23T04:43:03;11.00;;;5.80;;
29824;SDS011;16713;52.916;12.834;2022-07-23T04:45:31;8.05;;;6.00;;
29824;SDS011;16713;52.916;12.834;2022-07-23T04:47:57;6.93;;;5.55;;
29824;SDS011;16713;52.916;12.834;2022-07-23T04:50:24;10.43;;;5.70;;
29824;SDS011;16713;52.916;12.834;2022-07-23T04:52:51;20.55;;;6.80;;
29824;SDS011;16713;52.916;12.834;2022-07-23T04:55:18;11.88;;;5.70;;
29824;SDS011;16713;52.916;12.834;2022-07-23T04:57:44;9.63;;;6.25;;
29824;SDS011;16713;52.916;12.834;2022-07-23T05:00:11;9.07;;;5.35;;
29824;SDS011;16713;52.916;12.834;2022-07-23T05:02:38;8.25;;;5.03;;
29824;SDS011;16713;52.916;12.834;2022-07-23T05:05:04;8.55;;;5.22;;
29824;SDS011;16713;52.916;12.834;2022-07-23T05:07:31;7.60;;;5.10;;
29824;SDS011;16713;52.916;12.834;2022-07-23T05:09:58;13.25;;;5.60;;
29824;SDS011;16713;52.916;12.834;2022-07-23T05:12:24;7.45;;;5.45;;
29824;SDS011;16713;52.916;12.834;2022-07-23T05:14:51;13.45;;;5.78;;
29824;SDS011;16713;52.916;12.834;2022-07-23T05:17:18;9.38;;;5.75;;
29824;SDS011;16713;52.916;12.834;2022-07-23T05:19:45;9.30;;;5.78;;
29824;SDS011;16713;52.916;12.834;2022-07-23T05:22:12;9.07;;;5.20;;
29824;SDS011;16713;52.916;12.834;2022-07-23T05:24:38;7.57;;;5.70;;
29824;SDS011;16713;52.916;12.834;2022-07-23T05:27:05;10.73;;;5.72;;
29824;SDS011;16713;52.916;12.834;2022-07-23T05:29:31;10.45;;;5.70;;
29824;SDS011;16713;52.916;12.834;2022-07-23T05:31:58;8.50;;;4.72;;
29824;SDS011;16713;52.916;12.834;2022-07-23T05:34:24;11.77;;;6.05;;
29824;SDS011;16713;52.916;12.834;2022-07-23T05:36:51;9.88;;;4.75;;
29824;SDS011;16713;52.916;12.834;2022-07-23T05:39:17;8.98;;;5.10;;
29824;SDS011;16713;52.916;12.834;2022-07-23T05:41:44;7.95;;;4.35;;
29824;SDS011;16713;52.916;12.834;2022-07-23T05:44:10;7.03;;;4.28;;
29824;SDS011;16713;52.916;12.834;2022-07-23T05:46:37;9.02;;;4.50;;
29824;SDS011;16713;52.916;12.834;2022-07-23T05:49:03;7.35;;;4.63;;
29824;SDS011;16713;52.916;12.834;2022-07-23T05:51:31;8.85;;;3.92;;
29824;SDS011;16713;52.916;12.834;2022-07-23T05:53:58;11.60;;;4.47;;
29824;SDS011;16713;52.916;12.834;2022-07-23T05:56:24;8.40;;;4.38;;
29824;SDS011;16713;52.916;12.834;2022-07-23T05:58:51;7.97;;;4.43;;
29824;SDS011;16713;52.916;12.834;2022-07-23T06:01:17;10.50;;;5.18;;
29824;SDS011;16713;52.916;12.834;2022-07-23T06:03:44;9.88;;;4.88;;
29824;SDS011;16713;52.916;12.834;2022-07-23T06:06:11;8.18;;;4.50;;
29824;SDS011;16713;52.916;12.834;2022-07-23T06:08:37;11.13;;;3.95;;
29824;SDS011;16713;52.916;12.834;2022-07-23T06:11:04;11.38;;;4.35;;
29824;SDS011;16713;52.916;12.834;2022-07-23T06:13:30;12.55;;;4.43;;
29824;SDS011;16713;52.916;12.834;2022-07-23T06:15:57;12.10;;;4.30;;
29824;SDS011;16713;52.916;12.834;2022-07-23T06:18:23;7.15;;;4.68;;
29824;SDS011;16713;52.916;12.834;2022-07-23T06:20:50;8.02;;;4.20;;
29824;SDS011;16713;52.916;12.834;2022-07-23T06:23:23;11.43;;;4.93;;
29824;SDS011;16713;52.916;12.834;2022-07-23T06:25:49;5.30;;;3.88;;
29824;SDS011;16713;52.916;12.834;2022-07-23T06:28:16;10.27;;;4.88;;
29824;SDS011;16713;52.916;12.834;2022-07-23T06:30:42;9.65;;;4.78;;
29824;SDS011;16713;52.916;12.834;2022-07-23T06:33:09;9.07;;;3.67;;
29824;SDS011;16713;52.916;12.834;2022-07-23T06:35:37;5.97;;;3.53;;
29824;SDS011;16713;52.916;12.834;2022-07-23T06:38:04;6.28;;;2.83;;
29824;SDS011;16713;52.916;12.834;2022-07-23T06:40:31;9.82;;;2.92;;
29824;SDS011;16713;52.916;12.834;2022-07-23T06:42:57;8.50;;;3.33;;
29824;SDS011;16713;52.916;12.834;2022-07-23T06:45:24;4.68;;;2.00;;
29824;SDS011;16713;52.916;12.834;2022-07-23T06:47:51;8.88;;;2.45;;
29824;SDS011;16713;52.916;12.834;2022-07-23T06:50:17;4.68;;;2.42;;
29824;SDS011;16713;52.916;12.834;2022-07-23T06:52:44;4.07;;;2.22;;
29824;SDS011;16713;52.916;12.834;2022-07-23T06:55:11;8.88;;;2.47;;
29824;SDS011;16713;52.916;12.834;2022-07-23T06:57:37;6.40;;;2.38;;
29824;SDS011;16713;52.916;12.834;2022-07-23T07:00:04;5.35;;;2.72;;
29824;SDS011;16713;52.916;12.834;2022-07-23T07:02:32;5.07;;;2.60;;
29824;SDS011;16713;52.916;12.834;2022-07-23T07:04:58;5.65;;;2.72;;
29824;SDS011;16713;52.916;12.834;2022-07-23T07:07:31;5.57;;;2.65;;
29824;SDS011;16713;52.916;12.834;2022-07-23T07:09:57;4.45;;;2.70;;
29824;SDS011;16713;52.916;12.834;2022-07-23T07:12:24;4.68;;;2.83;;
29824;SDS011;16713;52.916;12.834;2022-07-23T07:14:50;6.68;;;2.47;;
29824;SDS011;16713;52.916;12.834;2022-07-23T07:17:17;4.07;;;2.25;;
29824;SDS011;16713;52.916;12.834;2022-07-23T07:19:43;5.00;;;2.17;;
29824;SDS011;16713;52.916;12.834;2022-07-23T07:22:10;5.88;;;2.42;;
29824;SDS011;16713;52.916;12.834;2022-07-23T07:24:36;7.15;;;2.72;;
29824;SDS011;16713;52.916;12.834;2022-07-23T07:27:04;7.53;;;2.47;;
29824;SDS011;16713;52.916;12.834;2022-07-23T07:29:31;7.63;;;2.97;;
29824;SDS011;16713;52.916;12.834;2022-07-23T07:31:57;8.32;;;2.88;;
29824;SDS011;16713;52.916;12.834;2022-07-23T07:34:24;6.93;;;2.47;;
29824;SDS011;16713;52.916;12.834;2022-07-23T07:36:50;5.80;;;2.53;;
29824;SDS011;16713;52.916;12.834;2022-07-23T07:39:17;7.93;;;2.95;;
29824;SDS011;16713;52.916;12.834;2022-07-23T07:41:43;5.50;;;2.78;;
29824;SDS011;16713;52.916;12.834;2022-07-23T07:44:10;6.00;;;3.00;;
29824;SDS011;16713;52.916;12.834;2022-07-23T07:46:36;13.77;;;3.05;;
29824;SDS011;16713;52.916;12.834;2022-07-23T07:49:03;8.35;;;3.47;;
29824;SDS011;16713;52.916;12.834;2022-07-23T07:51:31;5.75;;;2.80;;
29824;SDS011;16713;52.916;12.834;2022-07-23T07:53:58;5.80;;;2.90;;
29824;SDS011;16713;52.916;12.834;2022-07-23T07:56:26;8.57;;;3.15;;
29824;SDS011;16713;52.916;12.834;2022-07-23T07:58:53;7.40;;;2.85;;
29824;SDS011;16713;52.916;12.834;2022-07-23T08:01:19;9.15;;;3.50;;
29824;SDS011;16713;52.916;12.834;2022-07-23T08:03:46;8.40;;;3.15;;
29824;SDS011;16713;52.916;12.834;2022-07-23T08:06:13;10.05;;;3.63;;
29824;SDS011;16713;52.916;12.834;2022-07-23T08:08:39;6.43;;;2.70;;
29824;SDS011;16713;52.916;12.834;2022-07-23T08:11:06;5.93;;;2.67;;
29824;SDS011;16713;52.916;12.834;2022-07-23T08:13:32;8.45;;;3.20;;
29824;SDS011;16713;52.916;12.834;2022-07-23T08:15:59;8.63;;;3.38;;
29824;SDS011;16713;52.916;12.834;2022-07-23T08:18:26;6.80;;;2.85;;
29824;SDS011;16713;52.916;12.834;2022-07-23T08:20:53;5.57;;;2.70;;
29824;SDS011;16713;52.916;12.834;2022-07-23T08:23:19;5.32;;;2.78;;
29824;SDS011;16713;52.916;12.834;2022-07-23T08:25:46;5.40;;;2.55;;
29824;SDS011;16713;52.916;12.834;2022-07-23T08:28:13;4.50;;;2.88;;
29824;SDS011;16713;52.916;12.834;2022-07-23T08:30:41;5.18;;;2.85;;
29824;SDS011;16713;52.916;12.834;2022-07-23T08:33:13;5.78;;;3.58;;
29824;SDS011;16713;52.916;12.834;2022-07-23T08:35:59;8.65;;;2.78;;
29824;SDS011;16713;52.916;12.834;2022-07-23T08:38:28;4.88;;;2.85;;
29824;SDS011;16713;52.916;12.834;2022-07-23T08:40:55;8.05;;;2.78;;
29824;SDS011;16713;52.916;12.834;2022-07-23T08:43:26;5.05;;;3.00;;
29824;SDS011;16713;52.916;12.834;2022-07-23T08:45:56;7.57;;;2.22;;
29824;SDS011;16713;52.916;12.834;2022-07-23T08:48:28;6.93;;;2.67;;
29824;SDS011;16713;52.916;12.834;2022-07-23T08:50:58;7.47;;;2.80;;
29824;SDS011;16713;52.916;12.834;2022-07-23T08:53:27;4.57;;;2.70;;
29824;SDS011;16713;52.916;12.834;2022-07-23T08:55:55;3.72;;;2.35;;
29824;SDS011;16713;52.916;12.834;2022-07-23T08:58:24;4.97;;;2.60;;
29824;SDS011;16713;52.916;12.834;2022-07-23T09:00:53;8.38;;;2.67;;
29824;SDS011;16713;52.916;12.834;2022-07-23T09:03:23;4.22;;;2.28;;
29824;SDS011;16713;52.916;12.834;2022-07-23T09:05:55;5.82;;;2.75;;
29824;SDS011;16713;52.916;12.834;2022-07-23T09:08:44;8.20;;;3.30;;
29824;SDS011;16713;52.916;12.834;2022-07-23T09:11:11;6.78;;;2.47;;
29824;SDS011;16713;52.916;12.834;2022-07-23T09:16:20;7.30;;;3.47;;
29824;SDS011;16713;52.916;12.834;2022-07-23T09:21:24;5.28;;;2.88;;
29824;SDS011;16713;52.916;12.834;2022-07-23T09:24:02;7.72;;;3.28;;
29824;SDS011;16713;52.916;12.834;2022-07-23T09:26:45;5.70;;;2.95;;
29824;SDS011;16713;52.916;12.834;2022-07-23T09:29:20;6.30;;;2.40;;
29824;SDS011;16713;52.916;12.834;2022-07-23T09:31:58;4.68;;;2.70;;
29824;SDS011;16713;52.916;12.834;2022-07-23T09:34:27;6.70;;;3.25;;
29824;SDS011;16713;52.916;12.834;2022-07-23T09:36:57;5.30;;;2.25;;
29824;SDS011;16713;52.916;12.834;2022-07-23T09:39:34;4.65;;;2.45;;
29824;SDS011;16713;52.916;12.834;2022-07-23T09:44:42;4.30;;;2.63;;
29824;SDS011;16713;52.916;12.834;2022-07-23T09:47:13;6.13;;;2.90;;
29824;SDS011;16713;52.916;12.834;2022-07-23T09:49:40;8.70;;;3.20;;
29824;SDS011;16713;52.916;12.834;2022-07-23T09:52:31;5.40;;;2.78;;
29824;SDS011;16713;52.916;12.834;2022-07-23T09:55:04;6.97;;;3.20;;
29824;SDS011;16713;52.916;12.834;2022-07-23T09:57:32;4.10;;;2.33;;
29824;SDS011;16713;52.916;12.834;2022-07-23T10:00:06;4.97;;;2.72;;
29824;SDS011;16713;52.916;12.834;2022-07-23T10:02:37;6.25;;;2.75;;
29824;SDS011;16713;52.916;12.834;2022-07-23T10:05:05;3.85;;;2.35;;
29824;SDS011;16713;52.916;12.834;2022-07-23T10:07:34;4.28;;;2.40;;
29824;SDS011;16713;52.916;12.834;2022-07-23T10:10:05;8.50;;;2.97;;
29824;SDS011;16713;52.916;12.834;2022-07-23T10:12:32;4.13;;;2.88;;
29824;SDS011;16713;52.916;12.834;2022-07-23T10:14:59;3.53;;;2.47;;
29824;SDS011;16713;52.916;12.834;2022-07-23T10:17:29;6.55;;;2.40;;
29824;SDS011;16713;52.916;12.834;2022-07-23T10:19:56;7.65;;;2.50;;
29824;SDS011;16713;52.916;12.834;2022-07-23T10:22:23;5.65;;;2.60;;
29824;SDS011;16713;52.916;12.834;2022-07-23T10:30:16;5.43;;;2.80;;
29824;SDS011;16713;52.916;12.834;2022-07-23T10:35:29;5.75;;;2.70;;
29824;SDS011;16713;52.916;12.834;2022-07-23T10:38:21;4.55;;;2.40;;
29824;SDS011;16713;52.916;12.834;2022-07-23T10:41:10;7.43;;;3.20;;
29824;SDS011;16713;52.916;12.834;2022-07-23T10:43:39;6.25;;;2.85;;
29824;SDS011;16713;52.916;12.834;2022-07-23T10:49:21;5.75;;;2.88;;
29824;SDS011;16713;52.916;12.834;2022-07-23T10:54:40;5.38;;;2.80;;
29824;SDS011;16713;52.916;12.834;2022-07-23T10:57:08;10.48;;;3.95;;
29824;SDS011;16713;52.916;12.834;2022-07-23T11:02:32;6.18;;;3.10;;
29824;SDS011;16713;52.916;12.834;2022-07-23T11:05:00;7.47;;;2.95;;
29824;SDS011;16713;52.916;12.834;2022-07-23T11:07:30;6.53;;;2.97;;
29824;SDS011;16713;52.916;12.834;2022-07-23T11:09:58;4.75;;;2.88;;
29824;SDS011;16713;52.916;12.834;2022-07-23T11:17:30;3.88;;;2.65;;
29824;SDS011;16713;52.916;12.834;2022-07-23T11:25:08;3.53;;;2.65;;
29824;SDS011;16713;52.916;12.834;2022-07-23T11:27:39;3.95;;;2.17;;
29824;SDS011;16713;52.916;12.834;2022-07-23T11:30:07;4.80;;;2.47;;
29824;SDS011;16713;52.916;12.834;2022-07-23T11:32:36;4.25;;;2.72;;
29824;SDS011;16713;52.916;12.834;2022-07-23T11:35:22;4.57;;;1.80;;
29824;SDS011;16713;52.916;12.834;2022-07-23T11:37:52;2.63;;;2.03;;
29824;SDS011;16713;52.916;12.834;2022-07-23T11:40:20;4.38;;;1.67;;
29824;SDS011;16713;52.916;12.834;2022-07-23T11:42:57;5.30;;;1.95;;
29824;SDS011;16713;52.916;12.834;2022-07-23T11:45:33;2.13;;;1.73;;
29824;SDS011;16713;52.916;12.834;2022-07-23T11:48:00;44.05;;;3.97;;
29824;SDS011;16713;52.916;12.834;2022-07-23T11:50:28;3.72;;;1.60;;
29824;SDS011;16713;52.916;12.834;2022-07-23T11:52:55;4.15;;;1.85;;
29824;SDS011;16713;52.916;12.834;2022-07-23T11:55:22;3.30;;;1.88;;
29824;SDS011;16713;52.916;12.834;2022-07-23T11:57:50;4.97;;;1.70;;
29824;SDS011;16713;52.916;12.834;2022-07-23T12:00:20;2.50;;;1.38;;
29824;SDS011;16713;52.916;12.834;2022-07-23T12:02:50;4.82;;;1.90;;
29824;SDS011;16713;52.916;12.834;2022-07-23T12:05:20;3.92;;;1.90;;
29824;SDS011;16713;52.916;12.834;2022-07-23T12:07:52;2.85;;;1.58;;
29824;SDS011;16713;52.916;12.834;2022-07-23T12:10:21;3.88;;;2.25;;
29824;SDS011;16713;52.916;12.834;2022-07-23T12:12:51;4.75;;;1.50;;
29824;SDS011;16713;52.916;12.834;2022-07-23T12:15:29;2.65;;;1.38;;
29824;SDS011;16713;52.916;12.834;2022-07-23T12:18:00;4.63;;;1.63;;
29824;SDS011;16713;52.916;12.834;2022-07-23T12:20:30;4.70;;;1.90;;
29824;SDS011;16713;52.916;12.834;2022-07-23T12:23:00;2.78;;;1.60;;
29824;SDS011;16713;52.916;12.834;2022-07-23T12:25:33;1.73;;;1.33;;
29824;SDS011;16713;52.916;12.834;2022-07-23T12:28:11;4.53;;;1.88;;
29824;SDS011;16713;52.916;12.834;2022-07-23T12:33:06;5.28;;;2.20;;
29824;SDS011;16713;52.916;12.834;2022-07-23T12:35:44;5.70;;;2.45;;
29824;SDS011;16713;52.916;12.834;2022-07-23T12:38:13;2.17;;;1.42;;
29824;SDS011;16713;52.916;12.834;2022-07-23T12:40:47;2.78;;;1.17;;
29824;SDS011;16713;52.916;12.834;2022-07-23T12:45:47;3.47;;;2.25;;
29824;SDS011;16713;52.916;12.834;2022-07-23T12:48:20;2.03;;;1.30;;
29824;SDS011;16713;52.916;12.834;2022-07-23T12:50:54;1.52;;;0.85;;
29824;SDS011;16713;52.916;12.834;2022-07-23T12:55:57;3.17;;;1.20;;
29824;SDS011;16713;52.916;12.834;2022-07-23T12:58:49;2.15;;;1.40;;
29824;SDS011;16713;52.916;12.834;2022-07-23T13:01:27;2.63;;;1.30;;
29824;SDS011;16713;52.916;12.834;2022-07-23T13:04:01;3.10;;;1.10;;
29824;SDS011;16713;52.916;12.834;2022-07-23T13:06:54;3.30;;;1.35;;
29824;SDS011;16713;52.916;12.834;2022-07-23T13:11:58;1.38;;;1.25;;
29824;SDS011;16713;52.916;12.834;2022-07-23T13:14:26;3.67;;;1.25;;
29824;SDS011;16713;52.916;12.834;2022-07-23T13:16:53;3.88;;;2.05;;
29824;SDS011;16713;52.916;12.834;2022-07-23T13:19:22;3.03;;;1.33;;
29824;SDS011;16713;52.916;12.834;2022-07-23T13:21:51;4.20;;;1.35;;
29824;SDS011;16713;52.916;12.834;2022-07-23T13:24:18;1.23;;;1.13;;
29824;SDS011;16713;52.916;12.834;2022-07-23T13:26:45;3.10;;;1.23;;
29824;SDS011;16713;52.916;12.834;2022-07-23T13:29:13;3.03;;;1.33;;
29824;SDS011;16713;52.916;12.834;2022-07-23T13:31:45;2.20;;;1.25;;
29824;SDS011;16713;52.916;12.834;2022-07-23T13:34:11;1.95;;;1.15;;
29824;SDS011;16713;52.916;12.834;2022-07-23T13:36:38;2.47;;;1.13;;
29824;SDS011;16713;52.916;12.834;2022-07-23T13:39:05;1.75;;;1.15;;
29824;SDS011;16713;52.916;12.834;2022-07-23T13:41:34;5.03;;;1.20;;
29824;SDS011;16713;52.916;12.834;2022-07-23T13:44:01;2.92;;;1.55;;
29824;SDS011;16713;52.916;12.834;2022-07-23T13:46:28;2.47;;;1.60;;
29824;SDS011;16713;52.916;12.834;2022-07-23T13:48:55;2.85;;;1.30;;
29824;SDS011;16713;52.916;12.834;2022-07-23T13:51:23;1.65;;;1.10;;
29824;SDS011;16713;52.916;12.834;2022-07-23T13:53:51;1.92;;;1.27;;
29824;SDS011;16713;52.916;12.834;2022-07-23T13:56:18;2.55;;;1.10;;
29824;SDS011;16713;52.916;12.834;2022-07-23T13:58:45;2.08;;;1.48;;
29824;SDS011;16713;52.916;12.834;2022-07-23T14:01:12;2.33;;;1.10;;
29824;SDS011;16713;52.916;12.834;2022-07-23T14:03:39;2.22;;;1.27;;
29824;SDS011;16713;52.916;12.834;2022-07-23T14:06:06;4.00;;;1.23;;
29824;SDS011;16713;52.916;12.834;2022-07-23T14:08:42;2.35;;;1.40;;
29824;SDS011;16713;52.916;12.834;2022-07-23T14:11:10;4.07;;;1.77;;
29824;SDS011;16713;52.916;12.834;2022-07-23T14:13:38;2.50;;;1.50;;
29824;SDS011;16713;52.916;12.834;2022-07-23T14:16:06;3.33;;;1.60;;
29824;SDS011;16713;52.916;12.834;2022-07-23T14:18:32;3.22;;;1.75;;
29824;SDS011;16713;52.916;12.834;2022-07-23T14:20:59;3.90;;;1.70;;
29824;SDS011;16713;52.916;12.834;2022-07-23T14:23:27;1.85;;;1.40;;
29824;SDS011;16713;52.916;12.834;2022-07-23T14:25:53;4.35;;;2.10;;
29824;SDS011;16713;52.916;12.834;2022-07-23T14:28:20;2.67;;;1.85;;
29824;SDS011;16713;52.916;12.834;2022-07-23T14:30:47;4.75;;;2.35;;
29824;SDS011;16713;52.916;12.834;2022-07-23T14:33:14;2.92;;;2.10;;
29824;SDS011;16713;52.916;12.834;2022-07-23T14:35:42;2.70;;;1.90;;
29824;SDS011;16713;52.916;12.834;2022-07-23T14:38:09;1.75;;;1.52;;
29824;SDS011;16713;52.916;12.834;2022-07-23T14:40:39;2.65;;;2.13;;
29824;SDS011;16713;52.916;12.834;2022-07-23T14:43:06;3.03;;;1.63;;
29824;SDS011;16713;52.916;12.834;2022-07-23T14:45:36;5.55;;;1.75;;
29824;SDS011;16713;52.916;12.834;2022-07-23T14:48:03;6.57;;;1.77;;
29824;SDS011;16713;52.916;12.834;2022-07-23T14:50:29;2.10;;;1.48;;
29824;SDS011;16713;52.916;12.834;2022-07-23T14:52:56;2.60;;;1.48;;
29824;SDS011;16713;52.916;12.834;2022-07-23T14:55:23;1.58;;;1.48;;
29824;SDS011;16713;52.916;12.834;2022-07-23T14:57:49;2.42;;;1.58;;
29824;SDS011;16713;52.916;12.834;2022-07-23T15:00:17;5.03;;;1.67;;
29824;SDS011;16713;52.916;12.834;2022-07-23T15:02:49;3.47;;;1.45;;
29824;SDS011;16713;52.916;12.834;2022-07-23T15:05:20;2.88;;;1.30;;
29824;SDS011;16713;52.916;12.834;2022-07-23T15:07:47;7.65;;;1.63;;
29824;SDS011;16713;52.916;12.834;2022-07-23T15:10:13;2.97;;;1.63;;
29824;SDS011;16713;52.916;12.834;2022-07-23T15:12:40;2.00;;;1.33;;
29824;SDS011;16713;52.916;12.834;2022-07-23T15:15:07;5.72;;;1.85;;
29824;SDS011;16713;52.916;12.834;2022-07-23T15:17:35;4.88;;;1.95;;
29824;SDS011;16713;52.916;12.834;2022-07-23T15:20:02;2.08;;;1.30;;
29824;SDS011;16713;52.916;12.834;2022-07-23T15:22:29;3.55;;;1.15;;